Terminal Aerodrome Forecast
Issued by NWS

Home | Current Version | Previous Version | Text Only | Print | Product List | Glossary On
Versions: 1 2 3 4 5 6 7 8 9 10 11 12 13
000
FTUS43 KPAH 211100
TAFOWB
TAF
KOWB 211120Z 2112/2212 VRB03KT P6SM SCT070 BKN250
     FM211800 24008KT P6SM SCT050 BKN080
     FM212100 25008KT P6SM VCSH SCT030 BKN060 PROB30 2201/2207 4SM
      -TSRA BR BKN030CB
     FM221000 29009KT P6SM BKN035=

USA.gov is the U.S. government's official web portal to all federal, state and local government web resources and services.